createdAt,value
2018-03-19T00:00:11.884Z,7.20
2018-03-19T00:02:39.637Z,7.10
2018-03-19T00:05:06.616Z,7.10
2018-03-19T00:07:33.599Z,7.10
2018-03-19T00:10:00.580Z,7.10
2018-03-19T00:12:27.558Z,7.10
2018-03-19T00:14:54.549Z,7.10
2018-03-19T00:17:21.523Z,7.10
2018-03-19T00:19:49.271Z,7.10
2018-03-19T00:22:16.256Z,7.10
2018-03-19T00:24:43.235Z,7.10
2018-03-19T00:27:10.221Z,7.10
2018-03-19T00:29:37.971Z,7.10
2018-03-19T00:32:06.455Z,7.10
2018-03-19T00:34:33.440Z,7.10
2018-03-19T00:37:00.419Z,7.10
2018-03-19T00:39:27.400Z,7.10
2018-03-19T00:41:55.153Z,7.10
2018-03-19T00:44:22.137Z,7.10
2018-03-19T00:46:49.115Z,7.10
2018-03-19T00:49:16.863Z,7.10
2018-03-19T00:51:43.855Z,7.10
2018-03-19T00:54:10.839Z,7.10
2018-03-19T00:56:37.830Z,7.10
2018-03-19T00:59:04.811Z,7.10
2018-03-19T01:01:32.563Z,7.10
2018-03-19T01:04:00.319Z,7.10
2018-03-19T01:06:28.070Z,7.10
2018-03-19T01:08:55.047Z,7.10
2018-03-19T01:11:22.787Z,7.10
2018-03-19T01:13:49.767Z,7.10
2018-03-19T01:16:16.762Z,7.10
2018-03-19T01:18:43.740Z,7.10
2018-03-19T01:21:11.496Z,7.10
2018-03-19T01:23:39.235Z,7.10
2018-03-19T01:26:06.223Z,7.00
2018-03-19T01:28:33.208Z,7.10
2018-03-19T01:31:00.190Z,7.10
2018-03-19T01:33:27.944Z,7.10
2018-03-19T01:35:54.923Z,7.00
2018-03-19T01:38:21.907Z,7.00
2018-03-19T01:40:48.891Z,7.10
2018-03-19T01:43:16.643Z,7.10
2018-03-19T01:45:43.626Z,7.00
2018-03-19T01:48:10.607Z,7.00
2018-03-19T01:50:37.587Z,7.10
2018-03-19T01:53:05.338Z,7.00
2018-03-19T01:55:32.320Z,7.00
2018-03-19T01:57:59.296Z,7.00
2018-03-19T02:00:26.279Z,7.00
2018-03-19T02:02:53.260Z,7.00
2018-03-19T02:05:20.249Z,7.00
2018-03-19T02:07:47.227Z,7.00
2018-03-19T02:10:14.980Z,7.00
2018-03-19T02:12:41.972Z,7.00
2018-03-19T02:15:08.953Z,7.00
2018-03-19T02:17:35.932Z,7.00
2018-03-19T02:20:03.678Z,7.00
2018-03-19T02:22:30.664Z,7.00
2018-03-19T02:24:57.647Z,7.00
2018-03-19T02:27:24.627Z,7.00
2018-03-19T02:29:52.375Z,7.00
2018-03-19T02:32:19.360Z,7.00
2018-03-19T02:34:46.343Z,7.00
2018-03-19T02:37:13.323Z,7.00
2018-03-19T02:39:41.073Z,7.00
2018-03-19T02:42:08.056Z,7.00
2018-03-19T02:44:35.029Z,7.00
2018-03-19T02:47:02.012Z,7.00
2018-03-19T02:49:28.986Z,7.00
2018-03-19T02:51:55.983Z,7.00
2018-03-19T02:54:22.954Z,7.00
2018-03-19T02:56:49.939Z,7.00
2018-03-19T02:59:16.918Z,7.00
2018-03-19T03:01:43.891Z,7.00
2018-03-19T03:04:11.639Z,7.00
2018-03-19T03:06:38.623Z,7.00
2018-03-19T03:09:05.601Z,7.00
2018-03-19T03:11:32.582Z,7.00
2018-03-19T03:13:59.568Z,7.00
2018-03-19T03:16:26.547Z,7.00
2018-03-19T03:18:53.537Z,6.90
2018-03-19T03:21:21.280Z,6.90
2018-03-19T03:23:49.035Z,7.00
2018-03-19T03:26:16.072Z,7.00
2018-03-19T03:28:43.060Z,7.00
2018-03-19T03:31:10.808Z,7.00
2018-03-19T03:33:38.554Z,7.00
2018-03-19T03:36:05.544Z,6.90
2018-03-19T03:38:32.522Z,7.00
2018-03-19T03:40:59.502Z,6.90
2018-03-19T03:43:27.251Z,7.00
2018-03-19T03:45:54.230Z,6.90
2018-03-19T03:48:21.212Z,6.90
2018-03-19T03:50:48.199Z,6.90
2018-03-19T03:53:15.176Z,6.90
2018-03-19T03:55:42.155Z,6.90
2018-03-19T03:58:09.139Z,6.90
2018-03-19T04:00:36.892Z,6.90
2018-03-19T04:03:03.876Z,6.90
2018-03-19T04:05:30.966Z,6.90
2018-03-19T04:07:57.948Z,6.90
2018-03-19T04:10:25.694Z,7.00
2018-03-19T04:12:52.683Z,6.90
2018-03-19T04:15:19.659Z,6.90
2018-03-19T04:17:46.639Z,6.90
2018-03-19T04:20:14.388Z,6.90
2018-03-19T04:22:41.387Z,6.90
2018-03-19T04:25:08.379Z,6.90
2018-03-19T04:27:35.726Z,6.90
2018-03-19T04:30:02.708Z,6.90
2018-03-19T04:32:29.705Z,6.90
2018-03-19T04:34:56.688Z,6.90
2018-03-19T04:37:24.446Z,6.90
2018-03-19T04:39:52.201Z,6.90
2018-03-19T04:42:19.188Z,6.90
2018-03-19T04:44:46.178Z,6.90
2018-03-19T04:47:13.160Z,6.90
2018-03-19T04:49:40.918Z,6.90
2018-03-19T04:52:08.667Z,6.90
2018-03-19T04:54:36.425Z,6.90
2018-03-19T04:57:03.401Z,6.90
2018-03-19T04:59:30.391Z,6.90
2018-03-19T05:01:57.370Z,6.80
2018-03-19T05:04:25.126Z,6.90
2018-03-19T05:06:52.114Z,6.90
2018-03-19T05:09:19.097Z,6.90
2018-03-19T05:11:46.084Z,6.80
2018-03-19T05:14:13.835Z,6.80
2018-03-19T05:16:41.585Z,6.80
2018-03-19T05:19:09.330Z,6.80
2018-03-19T05:21:36.317Z,6.80
2018-03-19T05:24:04.062Z,6.80
2018-03-19T05:26:31.041Z,6.80
2018-03-19T05:28:58.023Z,6.80
2018-03-19T05:31:25.015Z,6.90
2018-03-19T05:33:52.763Z,6.80
2018-03-19T05:36:19.738Z,6.80
2018-03-19T05:38:46.735Z,6.80
2018-03-19T05:41:13.715Z,6.80
2018-03-19T05:43:41.460Z,6.80
2018-03-19T05:46:09.210Z,6.80
2018-03-19T05:48:36.200Z,6.80
2018-03-19T05:51:03.206Z,6.80
2018-03-19T05:53:30.187Z,6.80
2018-03-19T05:55:57.172Z,6.80
2018-03-19T05:58:24.159Z,6.80
2018-03-19T06:00:51.906Z,6.80
2018-03-19T06:03:18.900Z,6.80
2018-03-19T06:05:45.883Z,6.80
2018-03-19T06:08:12.863Z,6.90
2018-03-19T06:10:40.658Z,6.90
2018-03-19T06:13:07.645Z,6.90
2018-03-19T06:15:34.646Z,6.90
2018-03-19T06:18:01.636Z,6.80
2018-03-19T06:20:30.123Z,6.80
2018-03-19T06:22:57.112Z,6.80
2018-03-19T06:25:24.092Z,6.90
2018-03-19T06:27:51.072Z,6.80
2018-03-19T06:30:18.819Z,6.80
2018-03-19T06:32:45.808Z,6.80
2018-03-19T06:35:12.787Z,6.80
2018-03-19T06:37:39.799Z,6.80
2018-03-19T06:40:06.774Z,6.80
2018-03-19T06:42:33.754Z,6.80
2018-03-19T06:45:01.507Z,6.80
2018-03-19T06:47:28.494Z,6.80
2018-03-19T06:49:55.481Z,6.80
2018-03-19T06:52:22.472Z,6.80
2018-03-19T06:54:50.215Z,6.80
2018-03-19T06:57:17.239Z,6.80
2018-03-19T06:59:44.232Z,6.80
2018-03-19T07:02:11.215Z,6.80
2018-03-19T07:04:38.215Z,6.80
2018-03-19T07:07:06.046Z,6.80
2018-03-19T07:09:33.031Z,6.70
2018-03-19T07:12:00.776Z,6.70
2018-03-19T07:14:28.534Z,6.70
2018-03-19T07:16:55.523Z,6.70
2018-03-19T07:19:22.511Z,6.80
2018-03-19T07:21:49.494Z,6.70
2018-03-19T07:24:16.487Z,6.70
2018-03-19T07:26:43.475Z,6.80
2018-03-19T07:29:11.225Z,6.70
2018-03-19T07:31:39.062Z,6.70
2018-03-19T07:34:06.110Z,6.80
2018-03-19T07:36:33.092Z,6.70
2018-03-19T07:39:00.850Z,6.70
2018-03-19T07:41:28.598Z,6.80
2018-03-19T07:43:55.622Z,6.70
2018-03-19T07:46:22.593Z,6.80
2018-03-19T07:48:49.585Z,6.70
2018-03-19T07:51:16.581Z,6.70
2018-03-19T07:53:43.589Z,6.70
2018-03-19T07:56:10.568Z,6.70
2018-03-19T07:58:37.555Z,6.80
2018-03-19T08:01:04.536Z,6.70
2018-03-19T08:03:31.524Z,6.70
2018-03-19T08:05:59.279Z,6.70
2018-03-19T08:08:26.267Z,6.70
2018-03-19T08:10:53.252Z,6.70
2018-03-19T08:13:20.239Z,6.70
2018-03-19T08:15:47.225Z,6.70
2018-03-19T08:18:14.211Z,6.70
2018-03-19T08:20:41.968Z,6.70
2018-03-19T08:23:08.995Z,6.70
2018-03-19T08:25:35.996Z,6.70
2018-03-19T08:28:03.730Z,6.70
2018-03-19T08:30:31.529Z,6.70
2018-03-19T08:32:59.751Z,6.70
2018-03-19T08:35:26.735Z,6.70
2018-03-19T08:37:53.720Z,6.70
2018-03-19T08:40:20.702Z,6.70
2018-03-19T08:42:47.691Z,6.70
2018-03-19T08:45:14.667Z,6.70
2018-03-19T08:47:41.650Z,6.70
2018-03-19T08:50:09.399Z,6.70
2018-03-19T08:52:37.153Z,6.70
2018-03-19T08:55:04.135Z,6.70
2018-03-19T08:57:31.114Z,6.70
2018-03-19T08:59:58.105Z,6.70
2018-03-19T09:02:25.856Z,6.70
2018-03-19T09:04:52.847Z,6.70
2018-03-19T09:07:19.857Z,6.70
2018-03-19T09:09:46.827Z,6.70
2018-03-19T09:12:13.815Z,6.70
2018-03-19T09:14:40.808Z,6.70
2018-03-19T09:17:08.560Z,6.70
2018-03-19T09:19:36.325Z,6.70
2018-03-19T09:22:04.071Z,6.70
2018-03-19T09:24:31.061Z,6.70
2018-03-19T09:26:58.043Z,6.70
2018-03-19T09:29:25.045Z,6.70
2018-03-19T09:31:52.022Z,6.70
2018-03-19T09:34:19.015Z,6.70
2018-03-19T09:36:46.769Z,6.70
2018-03-19T09:39:13.763Z,6.70
2018-03-19T09:41:40.778Z,6.70
2018-03-19T09:44:07.760Z,6.70
2018-03-19T09:46:34.826Z,6.70
2018-03-19T09:49:01.820Z,6.70
2018-03-19T09:51:28.800Z,6.70
2018-03-19T09:53:55.796Z,6.70
2018-03-19T09:56:23.544Z,6.70
2018-03-19T09:58:50.532Z,6.70
2018-03-19T10:01:17.519Z,6.70
2018-03-19T10:03:44.510Z,6.70
2018-03-19T10:06:11.491Z,6.70
2018-03-19T10:08:38.476Z,6.70
2018-03-19T10:11:05.467Z,6.80
2018-03-19T10:13:32.447Z,6.70
2018-03-19T10:15:59.684Z,6.70
2018-03-19T10:18:26.667Z,6.80
2018-03-19T10:20:54.413Z,6.80
2018-03-19T10:23:21.395Z,6.80
2018-03-19T10:25:49.135Z,6.80
2018-03-19T10:28:16.118Z,6.70
2018-03-19T10:30:43.099Z,6.80
2018-03-19T10:33:10.087Z,6.80
2018-03-19T10:35:37.840Z,6.80
2018-03-19T10:38:05.583Z,6.80
2018-03-19T10:40:32.566Z,6.80
2018-03-19T10:42:59.551Z,6.80
2018-03-19T10:45:26.539Z,6.80
2018-03-19T10:47:54.284Z,6.80
2018-03-19T10:50:21.267Z,6.80
2018-03-19T10:52:48.300Z,6.80
2018-03-19T10:55:15.244Z,6.80
2018-03-19T10:57:43.076Z,6.80
2018-03-19T11:00:10.061Z,6.80
2018-03-19T11:02:43.587Z,6.80
2018-03-19T11:05:16.328Z,6.80
2018-03-19T11:07:45.887Z,6.90
2018-03-19T11:10:12.868Z,6.80
2018-03-19T11:12:39.847Z,6.80
2018-03-19T11:15:06.825Z,6.80
2018-03-19T11:17:33.946Z,6.80
2018-03-19T11:20:00.895Z,6.80
2018-03-19T11:22:27.863Z,6.80
2018-03-19T11:24:54.848Z,6.90
2018-03-19T11:27:22.598Z,6.90
2018-03-19T11:29:49.583Z,6.90
2018-03-19T11:32:16.568Z,6.90
2018-03-19T11:34:43.542Z,6.90
2018-03-19T11:37:11.295Z,6.90
2018-03-19T11:39:38.278Z,6.90
2018-03-19T11:42:05.263Z,6.90
2018-03-19T11:44:32.257Z,6.90
2018-03-19T11:47:00.003Z,6.90
2018-03-19T11:49:26.995Z,6.90
2018-03-19T11:51:53.983Z,6.90
2018-03-19T11:54:20.977Z,6.90
2018-03-19T11:56:47.956Z,6.90
2018-03-19T11:59:14.935Z,7.00
2018-03-19T12:01:42.681Z,7.00
2018-03-19T12:04:09.663Z,6.90
2018-03-19T12:06:36.638Z,7.00
2018-03-19T12:09:03.621Z,6.90
2018-03-19T12:11:30.600Z,7.00
2018-03-19T12:13:57.578Z,7.00
2018-03-19T12:16:24.559Z,7.00
2018-03-19T12:18:51.542Z,7.00
2018-03-19T12:21:18.522Z,7.00
2018-03-19T12:23:45.515Z,7.00
2018-03-19T12:26:13.259Z,7.10
2018-03-19T12:28:40.238Z,7.00
2018-03-19T12:31:07.219Z,7.00
2018-03-19T12:33:34.203Z,7.00
2018-03-19T12:36:01.956Z,7.00
2018-03-19T12:38:28.939Z,7.00
2018-03-19T12:40:55.923Z,7.10
2018-03-19T12:43:22.940Z,7.00
2018-03-19T12:45:50.662Z,7.00
2018-03-19T12:48:17.652Z,7.10
2018-03-19T12:50:44.636Z,7.10
2018-03-19T12:53:11.623Z,7.10
2018-03-19T12:55:38.619Z,7.10
2018-03-19T12:58:05.595Z,7.10
2018-03-19T13:00:33.355Z,7.10
2018-03-19T13:03:01.123Z,7.10
2018-03-19T13:05:28.882Z,7.10
2018-03-19T13:07:55.863Z,7.10
2018-03-19T13:10:22.863Z,7.10
2018-03-19T13:12:49.844Z,7.10
2018-03-19T13:15:16.832Z,7.10
2018-03-19T13:17:43.826Z,7.10
2018-03-19T13:20:11.579Z,7.10
2018-03-19T13:22:39.408Z,7.10
2018-03-19T13:25:06.394Z,7.10
2018-03-19T13:27:34.144Z,7.20
2018-03-19T13:30:01.131Z,7.10
2018-03-19T13:32:28.123Z,7.10
2018-03-19T13:34:55.112Z,7.20
2018-03-19T13:37:22.088Z,7.20
2018-03-19T13:39:49.066Z,7.10
2018-03-19T13:42:16.052Z,7.20
2018-03-19T13:44:43.035Z,7.20
2018-03-19T13:47:10.015Z,7.20
2018-03-19T13:49:37.767Z,7.20
2018-03-19T13:52:04.757Z,7.20
2018-03-19T13:54:31.738Z,7.20
2018-03-19T13:56:58.722Z,7.20
2018-03-19T13:59:26.471Z,7.20
2018-03-19T14:01:54.226Z,7.20
2018-03-19T14:04:21.214Z,7.20
2018-03-19T14:06:48.195Z,7.20
2018-03-19T14:09:15.179Z,7.20
2018-03-19T14:11:42.929Z,7.20
2018-03-19T14:14:09.903Z,7.20
2018-03-19T14:16:36.882Z,7.20
2018-03-19T14:19:03.866Z,7.20
2018-03-19T14:21:31.655Z,7.20
2018-03-19T14:23:58.603Z,7.20
2018-03-19T14:26:25.596Z,7.20
2018-03-19T14:28:52.597Z,7.30
2018-03-19T14:31:20.330Z,7.20
2018-03-19T14:33:48.097Z,7.20
2018-03-19T14:36:15.092Z,7.20
2018-03-19T14:38:42.046Z,7.30
2018-03-19T14:41:09.032Z,7.20
2018-03-19T14:43:36.783Z,7.30
2018-03-19T14:46:03.776Z,7.20
2018-03-19T14:48:30.757Z,7.20
2018-03-19T14:50:57.743Z,7.20
2018-03-19T14:53:25.512Z,7.30
2018-03-19T14:55:53.330Z,7.20
2018-03-19T14:58:20.312Z,7.20
2018-03-19T15:00:48.102Z,7.30
2018-03-19T15:03:15.084Z,7.20
2018-03-19T15:05:42.064Z,7.20
2018-03-19T15:08:09.812Z,7.30
2018-03-19T15:10:36.798Z,7.20
2018-03-19T15:13:03.780Z,7.20
2018-03-19T15:15:30.770Z,7.20
2018-03-19T15:17:58.512Z,7.20
2018-03-19T15:20:25.492Z,7.20
2018-03-19T15:22:52.480Z,7.20
2018-03-19T15:25:19.460Z,7.30
2018-03-19T15:27:47.206Z,7.20
2018-03-19T15:30:14.195Z,7.20
2018-03-19T15:32:41.179Z,7.30
2018-03-19T15:35:08.165Z,7.30
2018-03-19T15:37:35.989Z,7.30
2018-03-19T15:40:02.967Z,7.30
2018-03-19T15:42:30.717Z,7.20
2018-03-19T15:44:57.715Z,7.20
2018-03-19T15:47:24.708Z,7.30
2018-03-19T15:49:51.734Z,7.30
2018-03-19T15:52:18.709Z,7.30
2018-03-19T15:54:45.690Z,7.30
2018-03-19T15:57:12.672Z,7.20
2018-03-19T15:59:39.659Z,7.30
2018-03-19T16:02:07.414Z,7.30
2018-03-19T16:04:35.288Z,7.30
2018-03-19T16:07:02.338Z,7.30
2018-03-19T16:09:30.147Z,7.30
2018-03-19T16:11:57.198Z,7.30
2018-03-19T16:14:24.191Z,7.30
2018-03-19T16:16:52.032Z,7.30
2018-03-19T16:19:19.063Z,7.20
2018-03-19T16:21:46.102Z,7.30
2018-03-19T16:24:13.088Z,7.30
2018-03-19T16:26:40.859Z,7.30
2018-03-19T16:29:09.618Z,7.30
2018-03-19T16:31:36.703Z,7.30
2018-03-19T16:34:03.745Z,7.30
2018-03-19T16:36:31.487Z,7.30
2018-03-19T16:38:59.237Z,7.30
2018-03-19T16:41:26.219Z,7.30
2018-03-19T16:43:53.199Z,7.30
2018-03-19T16:46:20.182Z,7.30
2018-03-19T16:48:47.939Z,7.30
2018-03-19T16:51:14.927Z,7.30
2018-03-19T16:53:41.923Z,7.30
2018-03-19T16:56:08.923Z,7.30
2018-03-19T16:58:36.811Z,7.30
2018-03-19T17:01:03.800Z,7.30
2018-03-19T17:03:30.784Z,7.30
2018-03-19T17:05:57.768Z,7.30
2018-03-19T17:08:24.748Z,7.30
2018-03-19T17:10:52.494Z,7.30
2018-03-19T17:13:20.240Z,7.30
2018-03-19T17:15:47.222Z,7.30
2018-03-19T17:18:14.230Z,7.30
2018-03-19T17:20:41.215Z,7.30
2018-03-19T17:23:08.636Z,7.30
2018-03-19T17:25:35.659Z,7.30
2018-03-19T17:28:02.648Z,7.30
2018-03-19T17:30:30.543Z,7.30
2018-03-19T17:32:57.565Z,7.30
2018-03-19T17:35:25.324Z,7.30
2018-03-19T17:37:53.081Z,7.30
2018-03-19T17:40:21.585Z,7.30
2018-03-19T17:42:49.363Z,7.30
2018-03-19T17:45:16.355Z,7.30
2018-03-19T17:47:43.338Z,7.30
2018-03-19T17:50:10.364Z,7.30
2018-03-19T17:52:37.356Z,7.30
2018-03-19T17:55:04.345Z,7.40
2018-03-19T17:57:31.320Z,7.30
2018-03-19T17:59:59.089Z,7.30
2018-03-19T18:02:26.080Z,7.30
2018-03-19T18:04:53.278Z,7.30
2018-03-19T18:07:20.276Z,7.30
2018-03-19T18:09:47.264Z,7.30
2018-03-19T18:12:15.071Z,7.30
2018-03-19T18:14:42.063Z,7.30
2018-03-19T18:17:09.838Z,7.30
2018-03-19T18:19:37.590Z,7.30
2018-03-19T18:22:05.343Z,7.30
2018-03-19T18:24:32.347Z,7.30
2018-03-19T18:26:59.339Z,7.30
2018-03-19T18:29:26.344Z,7.30
2018-03-19T18:31:53.339Z,7.30
2018-03-19T18:34:21.089Z,7.30
2018-03-19T18:36:48.079Z,7.30
2018-03-19T18:39:15.067Z,7.30
2018-03-19T18:41:42.138Z,7.30
2018-03-19T18:44:09.115Z,7.30
2018-03-19T18:46:36.108Z,7.30
2018-03-19T18:49:03.105Z,7.30
2018-03-19T18:51:30.102Z,7.30
2018-03-19T18:53:57.091Z,7.30
2018-03-19T18:56:24.073Z,7.30
2018-03-19T18:58:51.068Z,7.30
2018-03-19T19:01:18.815Z,7.30
2018-03-19T19:03:47.444Z,7.30
2018-03-19T19:06:14.465Z,7.30
2018-03-19T19:08:41.454Z,7.30
2018-03-19T19:11:08.453Z,7.30
2018-03-19T19:13:36.293Z,7.30
2018-03-19T19:16:03.286Z,7.20
2018-03-19T19:18:30.275Z,7.30
2018-03-19T19:20:57.260Z,7.30
2018-03-19T19:23:24.250Z,7.30
2018-03-19T19:25:51.237Z,7.30
2018-03-19T19:28:18.993Z,7.30
2018-03-19T19:30:46.749Z,7.30
2018-03-19T19:33:13.736Z,7.30
2018-03-19T19:35:40.771Z,7.30
2018-03-19T19:38:07.766Z,7.30
2018-03-19T19:40:34.751Z,7.30
2018-03-19T19:43:02.506Z,7.30
2018-03-19T19:45:30.267Z,7.20
2018-03-19T19:47:58.048Z,7.20
2018-03-19T19:50:25.047Z,7.30
2018-03-19T19:52:52.048Z,7.30
2018-03-19T19:55:19.039Z,7.30
2018-03-19T19:57:46.094Z,7.30
2018-03-19T20:00:13.321Z,7.30
2018-03-19T20:02:40.390Z,7.30
2018-03-19T20:05:07.394Z,7.30
2018-03-19T20:07:34.381Z,7.20
2018-03-19T20:10:01.567Z,7.20
2018-03-19T20:12:28.582Z,7.30
2018-03-19T20:14:55.915Z,7.30
2018-03-19T20:17:23.558Z,7.20
2018-03-19T20:19:50.879Z,7.20
2018-03-19T20:22:18.237Z,7.20
2018-03-19T20:24:45.485Z,7.20
2018-03-19T20:27:12.839Z,7.30
2018-03-19T20:29:40.090Z,7.20
2018-03-19T20:32:07.380Z,7.30
2018-03-19T20:34:34.699Z,7.20
2018-03-19T20:37:02.930Z,7.20
2018-03-19T20:39:31.169Z,7.20
2018-03-19T20:41:58.500Z,7.20
2018-03-19T20:44:25.852Z,7.20
2018-03-19T20:46:53.267Z,7.20
2018-03-19T20:49:20.460Z,7.20
2018-03-19T20:51:47.647Z,7.20
2018-03-19T20:54:14.759Z,7.20
2018-03-19T20:56:42.008Z,7.20
2018-03-19T20:59:09.361Z,7.20
2018-03-19T21:01:36.613Z,7.20
2018-03-19T21:04:04.245Z,7.20
2018-03-19T21:06:32.245Z,7.20
2018-03-19T21:08:59.511Z,7.20
2018-03-19T21:11:26.848Z,7.20
2018-03-19T21:13:54.103Z,7.20
2018-03-19T21:16:21.698Z,7.20
2018-03-19T21:18:49.012Z,7.20
2018-03-19T21:21:16.112Z,7.20
2018-03-19T21:23:43.412Z,7.20
2018-03-19T21:26:10.598Z,7.20
2018-03-19T21:28:37.814Z,7.20
2018-03-19T21:31:05.097Z,7.20
2018-03-19T21:33:32.101Z,7.20
2018-03-19T21:35:59.855Z,7.20
2018-03-19T21:38:26.839Z,7.20
2018-03-19T21:40:53.816Z,7.30
2018-03-19T21:43:20.807Z,7.20
2018-03-19T21:45:48.559Z,7.20
2018-03-19T21:48:16.307Z,7.20
2018-03-19T21:50:43.340Z,7.20
2018-03-19T21:53:10.320Z,7.20
2018-03-19T21:55:38.063Z,7.20
2018-03-19T21:58:05.047Z,7.20
2018-03-19T22:00:32.023Z,7.20
2018-03-19T22:02:59.009Z,7.20
2018-03-19T22:05:25.998Z,7.20
2018-03-19T22:07:52.986Z,7.20
2018-03-19T22:10:19.972Z,7.30
2018-03-19T22:12:46.957Z,7.20
2018-03-19T22:15:13.946Z,7.20
2018-03-19T22:17:41.694Z,7.20
2018-03-19T22:20:09.455Z,7.20
2018-03-19T22:22:36.436Z,7.20
2018-03-19T22:25:03.432Z,7.20
2018-03-19T22:27:30.420Z,7.20
2018-03-19T22:29:58.223Z,7.20
2018-03-19T22:32:25.205Z,7.20
2018-03-19T22:34:52.195Z,7.20
2018-03-19T22:37:19.171Z,7.20
2018-03-19T22:39:46.186Z,7.20
2018-03-19T22:42:13.164Z,7.20
2018-03-19T22:44:40.152Z,7.20
2018-03-19T22:47:07.896Z,7.20
2018-03-19T22:49:34.883Z,7.20
2018-03-19T22:52:01.867Z,7.20
2018-03-19T22:54:28.859Z,7.20
2018-03-19T22:56:55.844Z,7.20
2018-03-19T22:59:22.840Z,7.20
2018-03-19T23:01:50.584Z,7.20
2018-03-19T23:04:23.498Z,7.20
2018-03-19T23:06:50.480Z,7.20
2018-03-19T23:09:17.471Z,7.20
2018-03-19T23:11:45.219Z,7.20
2018-03-19T23:14:13.719Z,7.20
2018-03-19T23:16:41.463Z,7.20
2018-03-19T23:19:08.456Z,7.20
2018-03-19T23:21:35.440Z,7.20
2018-03-19T23:24:02.433Z,7.20
2018-03-19T23:26:29.411Z,7.20
2018-03-19T23:28:56.404Z,7.20
2018-03-19T23:31:24.150Z,7.20
2018-03-19T23:33:51.910Z,7.20
2018-03-19T23:36:18.891Z,7.20
2018-03-19T23:38:45.881Z,7.20
2018-03-19T23:41:12.866Z,7.20
2018-03-19T23:43:40.611Z,7.20
2018-03-19T23:46:07.587Z,7.20
2018-03-19T23:48:35.337Z,7.20
2018-03-19T23:51:03.073Z,7.20
2018-03-19T23:53:30.064Z,7.20
2018-03-19T23:55:57.047Z,7.20
2018-03-19T23:58:24.023Z,7.20
